createdAt,value
2023-09-04T00:00:28.463Z,4.53
2023-09-04T00:02:55.279Z,4.33
2023-09-04T00:05:22.055Z,4.47
2023-09-04T00:07:48.796Z,4.13
2023-09-04T00:10:15.619Z,4.20
2023-09-04T00:12:42.389Z,4.77
2023-09-04T00:15:09.211Z,4.07
2023-09-04T00:17:36.147Z,4.23
2023-09-04T00:20:04.110Z,4.53
2023-09-04T00:22:31.256Z,4.47
2023-09-04T00:24:58.028Z,4.37
2023-09-04T00:27:24.833Z,4.23
2023-09-04T00:29:51.945Z,4.23
2023-09-04T00:32:18.701Z,4.10
2023-09-04T00:34:45.449Z,4.33
2023-09-04T00:37:12.412Z,4.47
2023-09-04T00:39:39.166Z,4.53
2023-09-04T00:42:05.926Z,4.63
2023-09-04T00:44:32.707Z,4.27
2023-09-04T00:47:00.410Z,4.07
2023-09-04T00:49:28.305Z,4.53
2023-09-04T00:51:55.749Z,4.70
2023-09-04T00:54:23.032Z,4.13
2023-09-04T00:56:52.580Z,4.07
2023-09-04T00:59:19.536Z,4.20
2023-09-04T01:01:46.560Z,4.50
2023-09-04T01:04:13.261Z,4.40
2023-09-04T01:06:40.356Z,4.30
2023-09-04T01:09:09.904Z,4.13
2023-09-04T01:11:41.569Z,4.27
2023-09-04T01:14:15.736Z,4.50
2023-09-04T01:16:43.106Z,4.13
2023-09-04T01:19:11.545Z,4.13
2023-09-04T01:21:38.622Z,3.97
2023-09-04T01:24:05.604Z,4.33
2023-09-04T01:26:49.172Z,3.97
2023-09-04T01:29:48.389Z,4.00
2023-09-04T01:32:19.263Z,3.90
2023-09-04T01:34:48.020Z,3.70
2023-09-04T01:37:15.263Z,4.47
2023-09-04T01:39:43.074Z,3.60
2023-09-04T01:42:09.988Z,3.53
2023-09-04T01:44:36.785Z,4.00
2023-09-04T01:47:03.554Z,4.27
2023-09-04T01:49:30.274Z,3.83
2023-09-04T01:52:00.872Z,4.20
2023-09-04T01:54:28.050Z,3.80
2023-09-04T01:56:54.807Z,4.37
2023-09-04T01:59:22.234Z,3.83
2023-09-04T02:01:49.848Z,3.80
2023-09-04T02:04:16.688Z,3.90
2023-09-04T02:06:43.433Z,3.87
2023-09-04T02:09:10.246Z,3.70
2023-09-04T02:11:36.956Z,4.03
2023-09-04T02:14:03.681Z,3.40
2023-09-04T02:16:31.052Z,4.03
2023-09-04T02:18:57.936Z,4.03
2023-09-04T02:21:24.662Z,4.00
2023-09-04T02:23:51.692Z,4.03
2023-09-04T02:26:18.456Z,3.63
2023-09-04T02:28:45.142Z,3.60
2023-09-04T02:31:12.576Z,4.30
2023-09-04T02:33:39.514Z,3.77
2023-09-04T02:36:06.280Z,4.30
2023-09-04T02:38:32.970Z,3.80
2023-09-04T02:40:59.690Z,4.23
2023-09-04T02:43:26.484Z,3.70
2023-09-04T02:45:53.803Z,3.77
2023-09-04T02:48:20.619Z,4.17
2023-09-04T02:50:47.343Z,3.93
2023-09-04T02:53:14.094Z,3.97
2023-09-04T02:55:40.838Z,3.87
2023-09-04T02:58:07.556Z,4.17
2023-09-04T03:00:34.329Z,4.07
2023-09-04T03:03:01.240Z,4.03
2023-09-04T03:05:28.305Z,4.13
2023-09-04T03:07:55.386Z,3.90
2023-09-04T03:10:22.181Z,4.33
2023-09-04T03:12:48.902Z,4.03
2023-09-04T03:15:16.373Z,3.60
2023-09-04T03:17:43.408Z,3.83
2023-09-04T03:20:11.335Z,4.00
2023-09-04T03:22:38.707Z,4.20
2023-09-04T03:25:05.706Z,4.03
2023-09-04T03:27:33.663Z,3.80
2023-09-04T03:30:01.007Z,3.90
2023-09-04T03:32:28.412Z,3.90
2023-09-04T03:34:55.149Z,3.93
2023-09-04T03:37:21.996Z,3.87
2023-09-04T03:39:48.747Z,4.00
2023-09-04T03:42:15.539Z,3.53
2023-09-04T03:44:42.239Z,3.57
2023-09-04T03:47:10.515Z,3.50
2023-09-04T03:49:37.289Z,3.83
2023-09-04T03:52:04.720Z,3.87
2023-09-04T03:54:33.039Z,3.87
2023-09-04T03:56:59.797Z,4.27
2023-09-04T03:59:26.619Z,4.10
2023-09-04T04:01:54.576Z,4.07
2023-09-04T04:04:21.279Z,3.70
2023-09-04T04:06:47.981Z,3.60
2023-09-04T04:09:16.771Z,3.40
2023-09-04T04:11:44.248Z,3.77
2023-09-04T04:14:10.936Z,3.77
2023-09-04T04:16:38.114Z,4.27
2023-09-04T04:19:05.475Z,3.50
2023-09-04T04:21:32.894Z,4.03
2023-09-04T04:24:00.042Z,4.03
2023-09-04T04:26:27.916Z,3.77
2023-09-04T04:28:55.136Z,4.10
2023-09-04T04:31:22.796Z,4.10
2023-09-04T04:33:49.943Z,4.20
2023-09-04T04:36:18.809Z,4.43
2023-09-04T04:38:46.369Z,3.90
2023-09-04T04:41:13.998Z,4.40
2023-09-04T04:43:40.694Z,4.20
2023-09-04T04:46:10.268Z,4.27
2023-09-04T04:48:37.309Z,4.10
2023-09-04T04:51:04.912Z,4.10
2023-09-04T04:53:32.454Z,4.50
2023-09-04T04:56:00.466Z,5.07
2023-09-04T04:58:27.291Z,3.63
2023-09-04T05:00:54.006Z,3.93
2023-09-04T05:03:20.869Z,4.03
2023-09-04T05:05:48.012Z,3.10
2023-09-04T05:08:14.743Z,3.73
2023-09-04T05:10:42.377Z,3.40
2023-09-04T05:13:09.470Z,3.17
2023-09-04T05:15:36.293Z,2.93
2023-09-04T05:18:03.467Z,3.20
2023-09-04T05:20:30.337Z,3.30
2023-09-04T05:22:57.737Z,3.00
2023-09-04T05:25:25.544Z,3.20
2023-09-04T05:27:52.960Z,2.83
2023-09-04T05:30:19.708Z,3.20
2023-09-04T05:32:46.551Z,3.10
2023-09-04T05:35:15.163Z,3.10
2023-09-04T05:37:43.515Z,3.30
2023-09-04T05:40:10.419Z,3.50
2023-09-04T05:42:37.145Z,3.30
2023-09-04T05:45:04.308Z,3.23
2023-09-04T05:47:31.111Z,3.10
2023-09-04T05:49:57.880Z,3.50
2023-09-04T05:52:24.559Z,3.23
2023-09-04T05:54:51.236Z,3.70
2023-09-04T05:57:18.023Z,3.20
2023-09-04T05:59:47.841Z,3.00
2023-09-04T06:02:14.625Z,3.33
2023-09-04T06:04:41.797Z,3.50
2023-09-04T06:07:11.279Z,3.23
2023-09-04T06:09:42.925Z,3.70
2023-09-04T06:12:11.773Z,3.20
2023-09-04T06:14:38.895Z,3.73
2023-09-04T06:17:05.678Z,3.43
2023-09-04T06:19:32.427Z,3.50
2023-09-04T06:21:59.347Z,3.57
2023-09-04T06:24:26.141Z,3.47
2023-09-04T06:26:52.972Z,3.03
2023-09-04T06:29:19.934Z,3.70
2023-09-04T06:31:46.711Z,3.43
2023-09-04T06:34:13.546Z,3.00
2023-09-04T06:36:40.388Z,3.60
2023-09-04T06:39:07.315Z,3.53
2023-09-04T06:41:34.348Z,3.60
2023-09-04T06:44:01.301Z,3.43
2023-09-04T06:46:28.228Z,3.63
2023-09-04T06:48:55.042Z,2.90
2023-09-04T06:51:21.822Z,3.00
2023-09-04T06:53:48.740Z,3.03
2023-09-04T06:56:15.497Z,3.53
2023-09-04T06:58:42.181Z,3.37
2023-09-04T07:01:08.978Z,3.20
2023-09-04T07:03:35.770Z,3.03
2023-09-04T07:06:03.359Z,3.27
2023-09-04T07:08:31.620Z,2.90
2023-09-04T07:10:58.788Z,3.10
2023-09-04T07:13:25.726Z,2.80
2023-09-04T07:15:52.743Z,2.70
2023-09-04T07:18:19.561Z,2.67
2023-09-04T07:20:46.350Z,2.90
2023-09-04T07:23:21.390Z,2.40
2023-09-04T07:25:49.902Z,2.50
2023-09-04T07:28:16.678Z,2.80
2023-09-04T07:30:43.492Z,2.53
2023-09-04T07:33:10.313Z,3.03
2023-09-04T07:35:37.080Z,2.60
2023-09-04T07:38:03.947Z,2.80
2023-09-04T07:40:30.707Z,2.37
2023-09-04T07:42:57.408Z,2.83
2023-09-04T07:45:25.294Z,2.80
2023-09-04T07:47:52.345Z,2.87
2023-09-04T07:50:19.168Z,2.60
2023-09-04T07:52:46.490Z,3.10
2023-09-04T07:55:13.555Z,2.70
2023-09-04T07:57:40.322Z,2.57
2023-09-04T08:00:07.380Z,2.80
2023-09-04T08:02:40.250Z,2.90
2023-09-04T08:05:07.248Z,2.90
2023-09-04T08:07:35.129Z,3.00
2023-09-04T08:10:02.250Z,2.70
2023-09-04T08:12:28.985Z,2.40
2023-09-04T08:14:55.753Z,2.77
2023-09-04T08:17:22.532Z,2.87
2023-09-04T08:19:49.243Z,2.63
2023-09-04T08:22:16.031Z,3.13
2023-09-04T08:24:42.783Z,2.60
2023-09-04T08:27:09.543Z,2.37
2023-09-04T08:29:36.393Z,2.37
2023-09-04T08:32:03.187Z,2.60
2023-09-04T08:34:29.975Z,2.13
2023-09-04T08:36:56.802Z,2.20
2023-09-04T08:39:23.612Z,2.40
2023-09-04T08:41:50.310Z,2.47
2023-09-04T08:44:18.223Z,2.20
2023-09-04T08:46:46.316Z,2.20
2023-09-04T08:49:15.467Z,2.40
2023-09-04T08:51:42.491Z,2.30
2023-09-04T08:54:09.294Z,2.10
2023-09-04T08:56:36.763Z,1.93
2023-09-04T08:59:03.528Z,2.00
2023-09-04T09:01:34.574Z,2.20
2023-09-04T09:04:02.793Z,2.23
2023-09-04T09:06:29.864Z,2.17
2023-09-04T09:08:57.771Z,2.30
2023-09-04T09:11:24.537Z,2.23
2023-09-04T09:13:51.278Z,2.00
2023-09-04T09:16:21.441Z,1.90
2023-09-04T09:18:49.231Z,2.03
2023-09-04T09:21:31.848Z,2.10
2023-09-04T09:24:08.129Z,1.93
2023-09-04T09:26:35.082Z,1.90
2023-09-04T09:29:03.800Z,2.47
2023-09-04T09:31:30.792Z,1.90
2023-09-04T09:33:58.023Z,1.90
2023-09-04T09:36:25.665Z,1.93
2023-09-04T09:38:54.146Z,2.30
2023-09-04T09:41:21.196Z,2.60
2023-09-04T09:43:47.992Z,1.90
2023-09-04T09:46:20.669Z,2.30
2023-09-04T09:48:47.914Z,1.97
2023-09-04T09:51:14.793Z,2.00
2023-09-04T09:53:48.704Z,2.00
2023-09-04T09:56:16.277Z,2.10
2023-09-04T09:58:46.232Z,2.13
2023-09-04T10:01:16.264Z,2.27
2023-09-04T10:03:45.014Z,2.13
2023-09-04T10:06:15.235Z,1.90
2023-09-04T10:08:43.915Z,2.13
2023-09-04T10:11:11.826Z,2.00
2023-09-04T10:13:44.027Z,2.00
2023-09-04T10:16:12.861Z,2.20
2023-09-04T10:18:41.537Z,2.20
2023-09-04T10:21:10.213Z,1.90
2023-09-04T10:23:40.876Z,2.20
2023-09-04T10:26:20.794Z,2.13
2023-09-04T10:28:55.372Z,2.10
2023-09-04T10:31:24.858Z,2.20
2023-09-04T10:33:53.016Z,2.10
2023-09-04T10:36:21.078Z,2.40
2023-09-04T10:38:48.278Z,2.13
2023-09-04T10:41:15.792Z,2.10
2023-09-04T10:43:42.853Z,2.07
2023-09-04T10:46:10.545Z,2.30
2023-09-04T10:48:55.603Z,1.90
2023-09-04T10:51:26.377Z,2.30
2023-09-04T10:53:53.353Z,2.00
2023-09-04T10:56:20.080Z,2.23
2023-09-04T10:58:58.704Z,2.10
2023-09-04T11:01:38.334Z,2.67
2023-09-04T11:04:06.447Z,2.33
2023-09-04T11:06:34.131Z,1.87
2023-09-04T11:09:01.972Z,2.10
2023-09-04T11:11:29.060Z,2.10
2023-09-04T11:13:56.653Z,2.20
2023-09-04T11:16:24.369Z,2.03
2023-09-04T11:19:00.966Z,2.10
2023-09-04T11:21:37.824Z,2.27
2023-09-04T11:24:05.630Z,2.20
2023-09-04T11:26:33.193Z,1.93
2023-09-04T11:29:00.718Z,2.07
2023-09-04T11:31:28.181Z,1.73
2023-09-04T11:33:55.927Z,1.90
2023-09-04T11:36:23.477Z,2.03
2023-09-04T11:39:06.959Z,2.00
2023-09-04T11:41:33.893Z,2.20
2023-09-04T11:44:01.468Z,2.33
2023-09-04T11:46:28.581Z,2.00
2023-09-04T11:48:55.490Z,1.83
2023-09-04T11:51:22.268Z,2.20
2023-09-04T11:53:49.465Z,2.03
2023-09-04T11:56:16.782Z,1.90
2023-09-04T11:58:43.602Z,2.13
2023-09-04T12:01:10.395Z,2.20
2023-09-04T12:03:37.561Z,1.90
2023-09-04T12:06:04.438Z,2.10
2023-09-04T12:08:31.292Z,2.23
2023-09-04T12:10:58.197Z,2.07
2023-09-04T12:13:25.017Z,2.00
2023-09-04T12:15:52.031Z,1.93
2023-09-04T12:18:18.910Z,1.83
2023-09-04T12:20:46.221Z,1.90
2023-09-04T12:23:13.170Z,2.17
2023-09-04T12:25:40.849Z,2.53
2023-09-04T12:28:08.941Z,1.97
2023-09-04T12:30:41.274Z,2.00
2023-09-04T12:33:12.354Z,2.10
2023-09-04T12:35:40.652Z,2.07
2023-09-04T12:38:07.681Z,1.33
2023-09-04T12:40:34.936Z,1.77
2023-09-04T12:43:02.396Z,2.40
2023-09-04T12:45:29.228Z,1.93
2023-09-04T12:47:59.277Z,1.90
2023-09-04T12:50:26.246Z,1.97
2023-09-04T12:52:52.924Z,2.27
2023-09-04T12:55:19.637Z,2.07
2023-09-04T12:57:46.859Z,2.10
2023-09-04T13:00:14.069Z,1.83
2023-09-04T13:02:40.940Z,2.07
2023-09-04T13:05:08.575Z,2.10
2023-09-04T13:07:35.301Z,1.77
2023-09-04T13:10:02.097Z,1.73
2023-09-04T13:12:28.820Z,2.13
2023-09-04T13:14:56.859Z,2.13
2023-09-04T13:17:24.349Z,1.80
2023-09-04T13:19:51.206Z,1.97
2023-09-04T13:22:18.210Z,2.23
2023-09-04T13:24:44.964Z,1.80
2023-09-04T13:27:12.554Z,2.10
2023-09-04T13:29:39.276Z,2.20
2023-09-04T13:32:07.358Z,1.70
2023-09-04T13:34:34.401Z,2.10
2023-09-04T13:37:01.599Z,1.87
2023-09-04T13:39:28.351Z,2.30
2023-09-04T13:41:56.583Z,2.20
2023-09-04T13:44:25.213Z,2.40
2023-09-04T13:46:52.336Z,2.10
2023-09-04T13:49:19.078Z,1.90
2023-09-04T13:51:45.803Z,2.23
2023-09-04T13:54:13.128Z,2.00
2023-09-04T13:56:39.956Z,2.00
2023-09-04T13:59:07.730Z,2.00
2023-09-04T14:01:34.539Z,2.00
2023-09-04T14:04:01.286Z,2.07
2023-09-04T14:06:28.060Z,2.13
2023-09-04T14:08:54.847Z,2.03
2023-09-04T14:11:21.732Z,2.10
2023-09-04T14:13:48.410Z,2.00
2023-09-04T14:16:15.234Z,2.10
2023-09-04T14:18:42.081Z,2.07
2023-09-04T14:21:08.778Z,2.30
2023-09-04T14:23:35.543Z,2.00
2023-09-04T14:26:02.369Z,1.90
2023-09-04T14:28:29.105Z,1.70
2023-09-04T14:30:55.853Z,1.60
2023-09-04T14:33:22.547Z,1.90
2023-09-04T14:35:56.569Z,1.93
2023-09-04T14:38:23.302Z,1.87
2023-09-04T14:40:50.811Z,1.90
2023-09-04T14:43:17.574Z,1.90
2023-09-04T14:45:50.655Z,1.80
2023-09-04T14:48:23.600Z,1.73
2023-09-04T14:50:50.532Z,1.80
2023-09-04T14:53:17.306Z,1.90
2023-09-04T14:55:44.084Z,2.00
2023-09-04T14:58:10.755Z,1.77
2023-09-04T15:00:37.429Z,1.80
2023-09-04T15:03:04.586Z,1.87
2023-09-04T15:05:31.415Z,2.20
2023-09-04T15:07:59.865Z,2.10
2023-09-04T15:10:26.654Z,1.90
2023-09-04T15:12:53.399Z,2.10
2023-09-04T15:15:20.389Z,1.87
2023-09-04T15:17:47.211Z,1.80
2023-09-04T15:20:15.174Z,1.60
2023-09-04T15:22:42.254Z,1.60
2023-09-04T15:25:09.179Z,1.70
2023-09-04T15:27:35.941Z,2.50
2023-09-04T15:30:03.089Z,1.90
2023-09-04T15:32:29.901Z,10.07
2023-09-04T15:34:56.843Z,1.90
2023-09-04T15:37:25.541Z,2.10
2023-09-04T15:39:52.831Z,1.97
2023-09-04T15:42:19.560Z,1.90
2023-09-04T15:44:46.306Z,1.50
2023-09-04T15:47:13.722Z,1.67
2023-09-04T15:49:40.745Z,1.80
2023-09-04T15:52:07.620Z,1.73
2023-09-04T15:54:34.339Z,1.70
2023-09-04T15:57:04.337Z,1.53
2023-09-04T15:59:31.812Z,2.00
2023-09-04T16:01:59.320Z,1.70
2023-09-04T16:04:27.625Z,1.70
2023-09-04T16:06:54.823Z,1.93
2023-09-04T16:09:22.034Z,2.30
2023-09-04T16:11:49.245Z,1.80
2023-09-04T16:14:15.986Z,8.43
2023-09-04T16:16:43.122Z,3.93
2023-09-04T16:19:09.958Z,2.10
2023-09-04T16:21:37.235Z,1.87
2023-09-04T16:24:04.066Z,1.93
2023-09-04T16:26:31.620Z,1.93
2023-09-04T16:28:58.709Z,1.90
2023-09-04T16:31:25.842Z,1.60
2023-09-04T16:33:52.840Z,1.80
2023-09-04T16:36:19.581Z,1.43
2023-09-04T16:38:46.268Z,1.80
2023-09-04T16:41:13.055Z,1.37
2023-09-04T16:43:39.826Z,1.60
2023-09-04T16:46:06.592Z,1.77
2023-09-04T16:48:33.392Z,1.67
2023-09-04T16:51:00.102Z,1.60
2023-09-04T16:53:26.892Z,1.70
2023-09-04T16:55:53.632Z,1.60
2023-09-04T16:58:20.318Z,1.70
2023-09-04T17:00:47.042Z,1.40
2023-09-04T17:03:13.857Z,1.70
2023-09-04T17:05:40.694Z,1.80
2023-09-04T17:08:08.528Z,1.57
2023-09-04T17:10:35.296Z,1.70
2023-09-04T17:13:02.005Z,1.70
2023-09-04T17:15:29.933Z,1.60
2023-09-04T17:17:57.534Z,1.67
2023-09-04T17:20:24.817Z,1.80
2023-09-04T17:22:51.546Z,1.70
2023-09-04T17:25:18.702Z,1.50
2023-09-04T17:27:45.405Z,1.53
2023-09-04T17:30:12.329Z,1.83
2023-09-04T17:32:39.318Z,1.73
2023-09-04T17:35:07.455Z,1.63
2023-09-04T17:37:34.140Z,1.90
2023-09-04T17:40:00.890Z,1.93
2023-09-04T17:42:27.591Z,1.60
2023-09-04T17:44:54.310Z,1.77
2023-09-04T17:47:21.061Z,1.73
2023-09-04T17:49:47.860Z,1.90
2023-09-04T17:52:14.533Z,1.80
2023-09-04T17:54:41.222Z,1.70
2023-09-04T17:57:07.937Z,2.00
2023-09-04T17:59:34.642Z,1.87
2023-09-04T18:02:01.322Z,1.93
2023-09-04T18:04:28.058Z,2.00
2023-09-04T18:06:54.744Z,2.00
2023-09-04T18:09:22.688Z,2.10
2023-09-04T18:11:50.015Z,2.20
2023-09-04T18:14:16.788Z,1.80
2023-09-04T18:16:43.546Z,2.00
2023-09-04T18:19:10.248Z,1.90
2023-09-04T18:21:37.061Z,1.90
2023-09-04T18:24:03.983Z,2.40
2023-09-04T18:26:31.160Z,2.00
2023-09-04T18:28:57.911Z,2.20
2023-09-04T18:31:24.779Z,2.17
2023-09-04T18:33:51.920Z,2.00
2023-09-04T18:36:19.063Z,2.60
2023-09-04T18:38:46.250Z,3.33
2023-09-04T18:41:13.567Z,3.27
2023-09-04T18:43:41.252Z,2.40
2023-09-04T18:46:10.172Z,2.47
2023-09-04T18:48:36.863Z,2.43
2023-09-04T18:51:03.651Z,2.77
2023-09-04T18:53:31.187Z,2.47
2023-09-04T18:55:58.997Z,2.47
2023-09-04T18:58:26.579Z,2.30
2023-09-04T19:01:01.433Z,2.10
2023-09-04T19:03:28.792Z,2.33
2023-09-04T19:05:56.626Z,2.50
2023-09-04T19:08:26.658Z,2.20
2023-09-04T19:10:54.043Z,2.30
2023-09-04T19:13:21.267Z,2.63
2023-09-04T19:15:48.004Z,1.80
2023-09-04T19:18:15.012Z,2.00
2023-09-04T19:20:42.031Z,2.57
2023-09-04T19:23:08.782Z,2.10
2023-09-04T19:25:35.595Z,2.07
2023-09-04T19:28:03.709Z,2.00
2023-09-04T19:30:31.565Z,2.20
2023-09-04T19:32:58.698Z,2.30
2023-09-04T19:35:25.842Z,2.17
2023-09-04T19:37:52.614Z,2.20
2023-09-04T19:40:19.562Z,2.10
2023-09-04T19:42:46.484Z,2.17
2023-09-04T19:45:13.611Z,2.20
2023-09-04T19:47:40.536Z,2.17
2023-09-04T19:50:08.970Z,2.00
2023-09-04T19:52:36.272Z,2.23
2023-09-04T19:55:04.605Z,2.17
2023-09-04T19:57:31.419Z,2.20
2023-09-04T19:59:58.471Z,1.90
2023-09-04T20:02:25.370Z,2.20
2023-09-04T20:04:52.140Z,2.00
2023-09-04T20:07:18.824Z,2.47
2023-09-04T20:09:47.371Z,2.30
2023-09-04T20:12:15.628Z,2.17
2023-09-04T20:14:42.365Z,2.43
2023-09-04T20:17:09.084Z,2.10
2023-09-04T20:19:35.785Z,3.00
2023-09-04T20:22:02.513Z,2.33
2023-09-04T20:24:29.520Z,2.30
2023-09-04T20:26:56.370Z,2.30
2023-09-04T20:29:23.153Z,2.10
2023-09-04T20:31:49.951Z,2.50
2023-09-04T20:34:16.661Z,2.80
2023-09-04T20:36:43.405Z,2.43
2023-09-04T20:39:10.089Z,2.77
2023-09-04T20:41:36.867Z,2.50
2023-09-04T20:44:03.963Z,2.70
2023-09-04T20:46:32.192Z,2.70
2023-09-04T20:48:58.978Z,2.80
2023-09-04T20:51:26.350Z,2.83
2023-09-04T20:53:53.135Z,2.83
2023-09-04T20:56:19.833Z,2.53
2023-09-04T20:58:46.559Z,2.60
2023-09-04T21:01:13.392Z,2.30
2023-09-04T21:03:40.213Z,2.70
2023-09-04T21:06:07.597Z,2.70
2023-09-04T21:08:34.530Z,2.33
2023-09-04T21:11:07.638Z,2.40
2023-09-04T21:13:53.345Z,2.30
2023-09-04T21:16:38.835Z,2.13
2023-09-04T21:19:24.187Z,2.50
2023-09-04T21:22:09.502Z,2.40
2023-09-04T21:24:54.701Z,2.93
2023-09-04T21:27:40.128Z,2.87
2023-09-04T21:30:25.879Z,2.47
2023-09-04T21:33:11.082Z,2.47
2023-09-04T21:35:56.384Z,2.70
2023-09-04T21:38:41.709Z,2.33
2023-09-04T21:41:27.003Z,2.33
2023-09-04T21:44:12.522Z,2.40
2023-09-04T21:46:57.806Z,2.33
2023-09-04T21:49:43.011Z,2.60
2023-09-04T21:52:28.227Z,2.10
2023-09-04T21:55:13.802Z,1.93
2023-09-04T21:57:59.389Z,2.03
2023-09-04T22:00:44.557Z,2.10
2023-09-04T22:03:30.095Z,2.00
2023-09-04T22:06:19.524Z,2.30
2023-09-04T22:09:04.959Z,2.20
2023-09-04T22:11:50.609Z,2.20
2023-09-04T22:14:35.974Z,2.20
2023-09-04T22:17:21.166Z,2.33
2023-09-04T22:20:06.267Z,1.97
2023-09-04T22:22:51.432Z,2.10
2023-09-04T22:25:36.760Z,1.90
2023-09-04T22:28:22.130Z,1.90
2023-09-04T22:31:07.759Z,2.00
2023-09-04T22:33:53.234Z,1.90
2023-09-04T22:36:38.866Z,2.10
2023-09-04T22:39:24.000Z,2.03
2023-09-04T22:42:09.447Z,2.10
2023-09-04T22:44:54.810Z,1.97
2023-09-04T22:47:40.107Z,2.10
2023-09-04T22:50:25.987Z,2.00
2023-09-04T22:53:11.167Z,1.93
2023-09-04T22:55:56.473Z,2.40
2023-09-04T22:58:41.876Z,2.07
2023-09-04T23:01:27.878Z,3.47
2023-09-04T23:04:13.608Z,2.97
2023-09-04T23:06:58.862Z,2.93
2023-09-04T23:09:44.215Z,2.50
2023-09-04T23:12:29.550Z,2.43
2023-09-04T23:15:14.740Z,2.83
2023-09-04T23:18:00.532Z,2.50
2023-09-04T23:20:46.088Z,2.40
2023-09-04T23:23:14.910Z,2.30
2023-09-04T23:25:45.970Z,2.33
2023-09-04T23:28:12.690Z,2.13
2023-09-04T23:30:40.588Z,2.70
2023-09-04T23:33:11.912Z,2.30
2023-09-04T23:36:06.008Z,2.37
2023-09-04T23:38:51.795Z,2.20
2023-09-04T23:41:38.112Z,2.07
2023-09-04T23:44:30.637Z,2.13
2023-09-04T23:46:57.312Z,2.13
2023-09-04T23:49:23.978Z,1.90
2023-09-04T23:51:50.670Z,2.23
2023-09-04T23:54:18.661Z,2.10
2023-09-04T23:56:47.705Z,1.83
2023-09-04T23:59:14.655Z,2.27
